Wednesday, August 23, 2017, 11:59 PM CDT
Back to Local

KMDW, Chicago Midway Airport

Location: Chicago, IL, United States Lat: 41.783
Local Time: 11:59 PM CDT ( 4:59 GMT) Lon: -87.75
Time Zone: US/Central Elev: 620 ft

Show me the last for .
Show Decoded

2017-08-23 22:53 METAR KMDW 240353Z 18003KT 10SM FEW075 19/14 A3003 RMK AO2 SLP161 T01940139 =
2017-08-23 21:53 METAR KMDW 240253Z 14003KT 10SM FEW070 FEW250 20/13 A3003 RMK AO2 SLP162
                 T02000133 51008 =
2017-08-23 20:53 METAR KMDW 240153Z 14004KT 10SM FEW060 FEW250 21/13 A3002 RMK AO2 SLP161
                 T02060133 =
2017-08-23 19:53 METAR KMDW 240053Z 09008KT 10SM SCT055 BKN080 21/13 A3001 RMK AO2 SLP157
                 T02110133 =
2017-08-23 18:53 METAR KMDW 232353Z 09007KT 10SM SCT055 BKN085 21/13 A3001 RMK AO2 SLP156
                 T02110133 10256 20211 56000 =
2017-08-23 17:53 METAR KMDW 232253Z 09010KT 10SM SCT065 BKN080 22/14 A3001 RMK AO2 SLP157
                 T02220139 =
2017-08-23 16:53 METAR KMDW 232153Z 07010KT 030V090 10SM FEW040 SCT060 BKN085 24/14 A3000 RMK AO2
                 SLP154 T02390139 =
2017-08-23 15:53 METAR KMDW 232053Z 32010KT 10SM BKN070 24/09 A3001 RMK AO2 SLP154 T02440094
                 57007 =
2017-08-23 14:53 METAR KMDW 231953Z 33006KT 10SM SCT060 SCT080 25/10 A3001 RMK AO2 SLP157
                 T02500100 =
2017-08-23 13:53 METAR KMDW 231853Z 29011G20KT 10SM SCT060 SCT080 26/10 A3002 RMK AO2 SLP159
                 T02560100 =
2017-08-23 12:53 METAR KMDW 231753Z 30014KT 10SM SCT060 25/09 A3003 RMK AO2 SLP161 T02500094
                 10250 20161 58002 =
2017-08-23 11:53 METAR KMDW 231653Z 31015G19KT 10SM FEW060 24/09 A3004 RMK AO2 SLP166 T02440094 =
2017-08-23 10:53 METAR KMDW 231553Z 32011G16KT 10SM FEW050 24/10 A3004 RMK AO2 SLP165 T02390100 =
2017-08-23 09:53 METAR KMDW 231453Z 32009KT 10SM CLR 22/11 A3003 RMK AO2 SLP163 T02220106 51002 =
2017-08-23 08:53 METAR KMDW 231353Z 30008KT 10SM CLR 20/11 A3003 RMK AO2 SLP164 T02000106 =
2017-08-23 07:53 METAR KMDW 231253Z 31006KT 10SM CLR 18/11 A3004 RMK AO2 SLP164 T01780111 =
2017-08-23 06:53 METAR KMDW 231153Z 30005KT 10SM CLR 16/11 A3003 RMK AO2 SLP161 T01610111 10183
                 20156 53004 =
2017-08-23 05:53 METAR KMDW 231053Z 28005KT 10SM CLR 16/11 A3002 RMK AO2 SLP158 T01560106 =
2017-08-23 04:53 METAR KMDW 230953Z 30007KT 10SM CLR 16/11 A3001 RMK AO2 SLP156 T01610106 =
2017-08-23 03:53 METAR KMDW 230853Z 29005KT 10SM CLR 17/11 A3002 RMK AO2 SLP156 T01670106 55000 =
2017-08-23 02:53 METAR KMDW 230753Z 30006KT 10SM CLR 17/11 A3001 RMK AO2 SLP155 T01720106 =
2017-08-23 01:53 METAR KMDW 230653Z 30005KT 10SM CLR 18/11 A3001 RMK AO2 SLP154 T01780111 =
2017-08-23 00:53 METAR KMDW 230553Z 30005KT 10SM CLR 18/11 A3002 RMK AO2 SLP157 T01830106 10244
                 20183 402720183 51011 =

Support USWX by starting your Amazon purchase here.